createdAt,value
2023-04-10T00:00:57.414Z,-2.17
2023-04-10T00:03:27.118Z,-2.39
2023-04-10T00:05:55.730Z,-2.38
2023-04-10T00:08:25.031Z,-2.04
2023-04-10T00:10:54.702Z,-2.08
2023-04-10T00:13:24.544Z,-2.23
2023-04-10T00:15:53.184Z,-2.49
2023-04-10T00:18:21.694Z,-2.09
2023-04-10T00:20:50.179Z,-2.20
2023-04-10T00:23:18.675Z,-2.48
2023-04-10T00:25:49.295Z,-2.34
2023-04-10T00:28:17.786Z,-2.37
2023-04-10T00:30:47.614Z,-2.27
2023-04-10T00:33:16.122Z,-2.22
2023-04-10T00:35:44.600Z,-2.45
2023-04-10T00:38:13.215Z,-2.21
2023-04-10T00:40:42.186Z,-2.52
2023-04-10T00:43:10.684Z,-2.11
2023-04-10T00:45:39.926Z,-1.82
2023-04-10T00:48:09.788Z,-2.02
2023-04-10T00:50:38.273Z,-2.12
2023-04-10T00:53:07.248Z,-2.44
2023-04-10T00:55:35.740Z,-2.19
2023-04-10T00:58:04.598Z,-2.03
2023-04-10T01:00:33.040Z,-2.45
2023-04-10T01:03:01.819Z,-2.46
2023-04-10T01:05:38.553Z,-2.67
2023-04-10T01:08:16.982Z,-2.30
2023-04-10T01:10:54.383Z,-2.50
2023-04-10T01:13:27.033Z,-2.63
2023-04-10T01:16:04.066Z,-2.48
2023-04-10T01:18:40.530Z,-2.46
2023-04-10T01:21:13.292Z,-2.72
2023-04-10T01:24:10.742Z,-2.59
2023-04-10T01:27:01.641Z,-2.48
2023-04-10T01:29:34.222Z,-2.67
2023-04-10T01:32:09.224Z,-2.60
2023-04-10T01:34:44.393Z,-2.61
2023-04-10T01:37:18.518Z,-2.95
2023-04-10T01:40:00.493Z,-3.01
2023-04-10T01:42:31.814Z,-2.92
2023-04-10T01:45:03.480Z,-2.65
2023-04-10T01:47:32.796Z,-2.63
2023-04-10T01:50:03.094Z,-2.96
2023-04-10T01:52:32.950Z,-2.96
2023-04-10T01:55:04.618Z,-2.79
2023-04-10T01:57:36.195Z,-2.60
2023-04-10T02:00:07.663Z,-2.63
2023-04-10T02:02:36.682Z,-2.76
2023-04-10T02:05:05.990Z,-2.54
2023-04-10T02:07:46.684Z,-2.70
2023-04-10T02:10:22.566Z,-2.67
2023-04-10T02:12:56.758Z,-2.74
2023-04-10T02:15:29.655Z,-3.12
2023-04-10T02:18:00.375Z,-3.25
2023-04-10T02:20:29.084Z,-3.04
2023-04-10T02:22:59.960Z,-3.06
2023-04-10T02:25:28.500Z,-3.05
2023-04-10T02:27:57.129Z,-2.63
2023-04-10T02:30:27.213Z,-2.54
2023-04-10T02:32:56.110Z,-3.07
2023-04-10T02:35:24.643Z,-2.97
2023-04-10T02:37:53.180Z,-2.67
2023-04-10T02:40:22.477Z,-3.12
2023-04-10T02:42:51.183Z,-2.95
2023-04-10T02:45:20.053Z,-3.02
2023-04-10T02:47:50.369Z,-3.04
2023-04-10T02:50:19.101Z,-2.92
2023-04-10T02:52:47.580Z,-3.34
2023-04-10T02:55:16.065Z,-3.25
2023-04-10T02:57:44.543Z,-3.00
2023-04-10T03:00:14.573Z,-3.08
2023-04-10T03:02:43.145Z,-3.02
2023-04-10T03:05:13.462Z,-2.78
2023-04-10T03:07:42.241Z,-2.92
2023-04-10T03:10:11.526Z,-3.17
2023-04-10T03:12:40.018Z,-3.28
2023-04-10T03:15:09.920Z,-3.11
2023-04-10T03:17:38.398Z,-2.77
2023-04-10T03:20:08.586Z,-2.70
2023-04-10T03:22:38.410Z,-2.74
2023-04-10T03:25:08.187Z,-2.79
2023-04-10T03:27:39.658Z,-2.80
2023-04-10T03:30:10.201Z,-2.94
2023-04-10T03:32:39.144Z,-3.17
2023-04-10T03:35:08.623Z,-2.72
2023-04-10T03:37:38.473Z,-3.20
2023-04-10T03:40:10.167Z,-3.43
2023-04-10T03:42:39.026Z,-3.20
2023-04-10T03:45:08.749Z,-3.16
2023-04-10T03:47:37.261Z,-3.12
2023-04-10T03:50:06.923Z,-3.16
2023-04-10T03:52:35.623Z,-3.16
2023-04-10T03:55:06.229Z,-3.31
2023-04-10T03:57:34.704Z,-3.49
2023-04-10T04:00:04.099Z,-3.46
2023-04-10T04:02:32.748Z,-3.17
2023-04-10T04:05:01.551Z,-3.16
2023-04-10T04:07:30.088Z,-3.03
2023-04-10T04:09:58.788Z,-2.93
2023-04-10T04:12:28.742Z,-2.87
2023-04-10T04:14:57.168Z,-3.20
2023-04-10T04:17:25.716Z,-3.14
2023-04-10T04:19:54.246Z,-3.13
2023-04-10T04:22:23.240Z,-3.00
2023-04-10T04:24:52.671Z,-3.18
2023-04-10T04:27:21.891Z,-3.22
2023-04-10T04:29:51.923Z,-3.31
2023-04-10T04:32:20.834Z,-3.10
2023-04-10T04:34:49.338Z,-3.22
2023-04-10T04:37:17.779Z,-3.41
2023-04-10T04:39:46.248Z,-3.44
2023-04-10T04:42:14.788Z,-3.28
2023-04-10T04:44:44.200Z,-3.40
2023-04-10T04:47:14.008Z,-3.67
2023-04-10T04:49:42.472Z,-3.67
2023-04-10T04:52:10.960Z,-3.66
2023-04-10T04:54:39.382Z,-3.38
2023-04-10T04:57:08.859Z,-3.27
2023-04-10T04:59:38.361Z,-3.14
2023-04-10T05:02:07.225Z,-3.72
2023-04-10T05:04:37.093Z,-3.54
2023-04-10T05:07:05.993Z,-3.54
2023-04-10T05:09:34.487Z,-3.35
2023-04-10T05:12:04.153Z,-3.57
2023-04-10T05:14:32.626Z,-3.58
2023-04-10T05:17:03.366Z,-3.38
2023-04-10T05:19:32.199Z,-3.00
2023-04-10T05:22:02.234Z,-2.93
2023-04-10T05:24:30.739Z,-2.93
2023-04-10T05:26:59.228Z,-3.04
2023-04-10T05:29:27.780Z,-3.01
2023-04-10T05:31:56.301Z,-3.20
2023-04-10T05:34:24.789Z,-2.76
2023-04-10T05:36:53.618Z,-2.79
2023-04-10T05:39:23.452Z,-2.63
2023-04-10T05:41:51.896Z,-2.50
2023-04-10T05:44:20.346Z,-2.63
2023-04-10T05:46:48.894Z,-2.52
2023-04-10T05:49:17.974Z,-2.49
2023-04-10T05:51:50.268Z,-2.57
2023-04-10T05:54:18.923Z,-2.48
2023-04-10T05:56:48.783Z,-2.42
2023-04-10T05:59:17.270Z,-2.48
2023-04-10T06:01:47.050Z,-2.38
2023-04-10T06:04:15.885Z,-2.74
2023-04-10T06:06:44.432Z,-2.73
2023-04-10T06:09:12.878Z,-2.60
2023-04-10T06:11:41.512Z,-2.32
2023-04-10T06:14:11.333Z,-2.40
2023-04-10T06:16:39.888Z,-2.85
2023-04-10T06:19:08.370Z,-2.90
2023-04-10T06:21:37.177Z,-2.70
2023-04-10T06:24:06.509Z,-2.52
2023-04-10T06:26:35.040Z,-2.20
2023-04-10T06:29:03.948Z,-2.08
2023-04-10T06:31:36.004Z,-2.20
2023-04-10T06:34:04.514Z,-2.50
2023-04-10T06:36:33.069Z,-2.00
2023-04-10T06:39:02.763Z,-2.44
2023-04-10T06:41:31.230Z,-2.02
2023-04-10T06:44:01.167Z,-1.96
2023-04-10T06:46:31.821Z,-2.17
2023-04-10T06:49:01.987Z,-1.86
2023-04-10T06:51:31.543Z,-2.08
2023-04-10T06:54:00.059Z,-2.09
2023-04-10T06:56:28.697Z,-2.13
2023-04-10T06:58:57.812Z,-2.05
2023-04-10T07:01:26.600Z,-1.62
2023-04-10T07:03:56.050Z,-1.79
2023-04-10T07:06:26.635Z,-1.65
2023-04-10T07:08:55.235Z,-1.50
2023-04-10T07:11:23.976Z,-1.37
2023-04-10T07:13:53.961Z,-1.10
2023-04-10T07:16:22.562Z,-0.72
2023-04-10T07:18:51.064Z,-0.48
2023-04-10T07:21:19.534Z,-0.24
2023-04-10T07:23:49.383Z,0.00
2023-04-10T07:26:17.872Z,0.55
2023-04-10T07:28:46.619Z,1.30
2023-04-10T07:31:15.179Z,1.95
2023-04-10T07:33:43.984Z,2.22
2023-04-10T07:36:12.539Z,2.69
2023-04-10T07:38:41.113Z,2.96
2023-04-10T07:41:12.261Z,3.08
2023-04-10T07:43:41.651Z,4.28
2023-04-10T07:46:10.171Z,4.03
2023-04-10T07:48:38.671Z,4.58
2023-04-10T07:51:09.595Z,4.01
2023-04-10T07:53:38.681Z,4.38
2023-04-10T07:56:08.761Z,4.04
2023-04-10T07:58:39.878Z,4.31
2023-04-10T08:01:08.659Z,4.33
2023-04-10T08:03:41.058Z,4.76
2023-04-10T08:06:10.378Z,4.92
2023-04-10T08:08:39.626Z,5.04
2023-04-10T08:11:24.913Z,5.10
2023-04-10T08:13:56.158Z,5.60
2023-04-10T08:16:26.241Z,6.10
2023-04-10T08:18:56.801Z,6.21
2023-04-10T08:21:27.500Z,7.54
2023-04-10T08:23:57.463Z,9.32
2023-04-10T08:26:27.802Z,10.21
2023-04-10T08:28:59.937Z,10.04
2023-04-10T08:31:30.205Z,9.67
2023-04-10T08:33:59.491Z,11.18
2023-04-10T08:36:28.644Z,11.37
2023-04-10T08:38:57.361Z,11.65
2023-04-10T08:41:26.634Z,12.54
2023-04-10T08:43:55.510Z,11.84
2023-04-10T08:46:26.621Z,13.24
2023-04-10T08:49:01.056Z,12.99
2023-04-10T08:51:35.638Z,13.32
2023-04-10T08:54:09.081Z,14.23
2023-04-10T08:56:39.440Z,13.69
2023-04-10T08:59:10.020Z,14.89
2023-04-10T09:01:44.958Z,13.82
2023-04-10T09:04:14.115Z,13.23
2023-04-10T09:06:42.698Z,14.16
2023-04-10T09:09:11.662Z,13.89
2023-04-10T09:12:00.850Z,14.07
2023-04-10T09:14:32.112Z,14.92
2023-04-10T09:17:19.833Z,13.72
2023-04-10T09:19:50.821Z,13.89
2023-04-10T09:22:19.757Z,14.28
2023-04-10T09:24:49.327Z,14.42
2023-04-10T09:27:32.488Z,14.12
2023-04-10T09:30:02.111Z,14.82
2023-04-10T09:32:44.640Z,14.26
2023-04-10T09:35:15.266Z,14.02
2023-04-10T09:37:46.872Z,14.56
2023-04-10T09:40:26.627Z,13.67
2023-04-10T09:42:56.959Z,13.84
2023-04-10T09:45:25.896Z,14.49
2023-04-10T09:48:07.059Z,14.23
2023-04-10T09:50:40.996Z,14.52
2023-04-10T09:53:10.497Z,14.25
2023-04-10T09:55:39.680Z,14.78
2023-04-10T09:58:09.627Z,13.82
2023-04-10T10:00:42.236Z,14.08
2023-04-10T10:03:14.290Z,13.66
2023-04-10T10:05:45.760Z,13.48
2023-04-10T10:08:15.999Z,14.16
2023-04-10T10:10:49.095Z,13.30
2023-04-10T10:13:26.498Z,13.62
2023-04-10T10:16:04.915Z,14.03
2023-04-10T10:18:46.080Z,14.32
2023-04-10T10:21:15.870Z,13.53
2023-04-10T10:23:44.900Z,13.76
2023-04-10T10:26:14.637Z,14.20
2023-04-10T10:28:44.168Z,14.05
2023-04-10T10:31:13.375Z,14.71
2023-04-10T10:33:43.896Z,14.41
2023-04-10T10:36:14.097Z,14.69
2023-04-10T10:38:52.534Z,14.67
2023-04-10T10:41:31.194Z,13.96
2023-04-10T10:44:10.422Z,14.24
2023-04-10T10:46:44.736Z,14.07
2023-04-10T10:49:14.604Z,14.60
2023-04-10T10:51:47.927Z,14.71
2023-04-10T10:54:42.235Z,14.71
2023-04-10T10:57:49.209Z,14.25
2023-04-10T11:00:18.246Z,13.20
2023-04-10T11:02:47.057Z,14.01
2023-04-10T11:05:52.576Z,13.93
2023-04-10T11:08:47.285Z,14.47
2023-04-10T11:11:20.192Z,14.26
2023-04-10T11:14:19.167Z,14.60
2023-04-10T11:16:49.225Z,14.42
2023-04-10T11:19:23.950Z,14.52
2023-04-10T11:22:10.697Z,14.73
2023-04-10T11:25:02.825Z,14.56
2023-04-10T11:27:45.118Z,14.67
2023-04-10T11:30:37.126Z,14.63
2023-04-10T11:33:06.728Z,14.49
2023-04-10T11:35:35.664Z,14.64
2023-04-10T11:38:14.544Z,14.65
2023-04-10T11:41:01.715Z,14.92
2023-04-10T11:43:30.700Z,15.08
2023-04-10T11:46:08.095Z,15.44
2023-04-10T11:48:38.045Z,15.19
2023-04-10T11:51:11.347Z,15.13
2023-04-10T11:53:42.481Z,14.63
2023-04-10T11:56:22.610Z,15.32
2023-04-10T11:58:54.966Z,15.39
2023-04-10T12:01:24.465Z,15.55
2023-04-10T12:03:53.305Z,15.42
2023-04-10T12:06:22.335Z,15.45
2023-04-10T12:08:52.757Z,14.83
2023-04-10T12:11:23.649Z,15.36
2023-04-10T12:13:55.501Z,15.21
2023-04-10T12:16:27.615Z,14.85
2023-04-10T12:18:57.228Z,15.39
2023-04-10T12:21:26.383Z,14.68
2023-04-10T12:23:56.241Z,14.54
2023-04-10T12:26:25.646Z,14.24
2023-04-10T12:28:57.508Z,14.81
2023-04-10T12:31:30.583Z,15.39
2023-04-10T12:33:59.594Z,14.73
2023-04-10T12:36:33.592Z,14.83
2023-04-10T12:39:04.995Z,14.43
2023-04-10T12:41:35.390Z,14.80
2023-04-10T12:44:12.201Z,15.13
2023-04-10T12:46:41.747Z,15.42
2023-04-10T12:49:12.500Z,14.49
2023-04-10T12:51:46.368Z,14.93
2023-04-10T12:54:33.599Z,15.15
2023-04-10T12:57:04.082Z,14.85
2023-04-10T12:59:33.776Z,14.97
2023-04-10T13:02:02.701Z,14.79
2023-04-10T13:04:32.968Z,14.68
2023-04-10T13:07:01.849Z,14.83
2023-04-10T13:09:31.931Z,15.05
2023-04-10T13:12:01.947Z,15.09
2023-04-10T13:14:30.648Z,15.07
2023-04-10T13:16:59.642Z,15.25
2023-04-10T13:19:28.125Z,15.38
2023-04-10T13:21:56.888Z,15.56
2023-04-10T13:24:25.470Z,15.32
2023-04-10T13:26:57.266Z,14.87
2023-04-10T13:29:26.132Z,14.89
2023-04-10T13:31:54.734Z,15.05
2023-04-10T13:34:23.325Z,15.24
2023-04-10T13:36:51.802Z,14.92
2023-04-10T13:39:20.306Z,15.31
2023-04-10T13:41:48.784Z,15.55
2023-04-10T13:44:18.874Z,15.64
2023-04-10T13:46:47.481Z,15.65
2023-04-10T13:49:17.584Z,15.18
2023-04-10T13:51:46.678Z,14.76
2023-04-10T13:54:17.082Z,15.01
2023-04-10T13:56:46.630Z,15.18
2023-04-10T13:59:15.451Z,15.30
2023-04-10T14:01:45.553Z,15.28
2023-04-10T14:04:14.040Z,15.11
2023-04-10T14:06:42.505Z,15.15
2023-04-10T14:09:10.975Z,15.02
2023-04-10T14:11:39.431Z,14.74
2023-04-10T14:14:07.929Z,14.81
2023-04-10T14:16:36.639Z,14.72
2023-04-10T14:19:06.691Z,14.75
2023-04-10T14:24:24.950Z,14.61
2023-04-10T14:26:58.541Z,14.24
2023-04-10T14:29:36.319Z,14.25
2023-04-10T14:32:08.263Z,14.38
2023-04-10T14:34:38.179Z,14.32
2023-04-10T14:37:07.613Z,14.15
2023-04-10T14:39:36.869Z,14.24
2023-04-10T14:42:05.421Z,14.35
2023-04-10T14:44:33.915Z,14.28
2023-04-10T14:47:02.390Z,14.25
2023-04-10T14:49:31.093Z,14.35
2023-04-10T14:52:01.346Z,14.23
2023-04-10T14:54:29.959Z,14.08
2023-04-10T14:57:00.136Z,14.04
2023-04-10T14:59:28.640Z,14.13
2023-04-10T15:01:57.357Z,14.04
2023-04-10T15:04:25.891Z,14.02
2023-04-10T15:06:54.640Z,13.95
2023-04-10T15:09:24.504Z,13.70
2023-04-10T15:11:52.956Z,13.81
2023-04-10T15:14:21.410Z,13.56
2023-04-10T15:16:52.621Z,13.68
2023-04-10T15:19:22.417Z,13.68
2023-04-10T15:21:51.670Z,13.56
2023-04-10T15:24:20.146Z,13.59
2023-04-10T15:26:50.050Z,13.65
2023-04-10T15:29:18.573Z,13.64
2023-04-10T15:31:47.066Z,13.73
2023-04-10T15:34:15.535Z,13.69
2023-04-10T15:36:44.215Z,13.62
2023-04-10T15:39:12.709Z,13.45
2023-04-10T15:41:41.178Z,13.52
2023-04-10T15:44:11.067Z,13.46
2023-04-10T15:46:39.605Z,13.52
2023-04-10T15:49:08.139Z,13.32
2023-04-10T15:51:36.670Z,13.44
2023-04-10T15:54:05.389Z,13.43
2023-04-10T15:56:34.530Z,13.11
2023-04-10T15:59:03.044Z,13.13
2023-04-10T16:01:33.019Z,13.25
2023-04-10T16:04:01.668Z,13.19
2023-04-10T16:06:30.235Z,13.24
2023-04-10T16:08:58.931Z,12.96
2023-04-10T16:11:27.439Z,12.82
2023-04-10T16:13:56.133Z,12.98
2023-04-10T16:16:25.848Z,13.12
2023-04-10T16:18:56.687Z,12.38
2023-04-10T16:21:25.414Z,12.19
2023-04-10T16:23:54.104Z,11.98
2023-04-10T16:26:22.652Z,12.56
2023-04-10T16:28:51.276Z,12.74
2023-04-10T16:31:19.837Z,12.84
2023-04-10T16:33:48.360Z,12.50
2023-04-10T16:36:18.410Z,12.45
2023-04-10T16:38:49.858Z,12.67
2023-04-10T16:41:20.584Z,12.78
2023-04-10T16:43:49.537Z,12.73
2023-04-10T16:46:18.196Z,12.79
2023-04-10T16:48:46.781Z,12.78
2023-04-10T16:51:18.917Z,12.75
2023-04-10T16:53:48.131Z,12.67
2023-04-10T16:56:17.947Z,12.68
2023-04-10T16:58:47.646Z,12.60
2023-04-10T17:01:18.321Z,12.57
2023-04-10T17:03:47.614Z,12.56
2023-04-10T17:06:17.752Z,12.10
2023-04-10T17:08:46.804Z,11.57
2023-04-10T17:11:16.046Z,11.08
2023-04-10T17:13:44.713Z,10.85
2023-04-10T17:16:13.204Z,10.68
2023-04-10T17:18:42.324Z,10.39
2023-04-10T17:21:13.234Z,10.32
2023-04-10T17:23:43.884Z,10.13
2023-04-10T17:26:15.921Z,9.94
2023-04-10T17:28:46.680Z,10.09
2023-04-10T17:31:16.418Z,10.07
2023-04-10T17:33:45.277Z,9.70
2023-04-10T17:36:14.934Z,9.77
2023-04-10T17:38:44.806Z,9.47
2023-04-10T17:41:16.627Z,9.65
2023-04-10T17:43:45.080Z,9.66
2023-04-10T17:46:15.449Z,9.54
2023-04-10T17:48:44.834Z,9.63
2023-04-10T17:51:13.548Z,9.36
2023-04-10T17:53:42.120Z,8.99
2023-04-10T17:56:19.775Z,8.93
2023-04-10T17:58:48.455Z,8.87
2023-04-10T18:01:23.847Z,9.14
2023-04-10T18:03:52.500Z,9.37
2023-04-10T18:06:21.067Z,9.48
2023-04-10T18:08:49.581Z,9.09
2023-04-10T18:11:19.466Z,9.49
2023-04-10T18:13:48.557Z,9.00
2023-04-10T18:16:17.600Z,8.99
2023-04-10T18:18:46.181Z,9.44
2023-04-10T18:21:14.738Z,9.36
2023-04-10T18:23:44.638Z,9.27
2023-04-10T18:26:13.963Z,9.27
2023-04-10T18:28:45.466Z,9.33
2023-04-10T18:31:16.755Z,9.59
2023-04-10T18:33:45.652Z,9.29
2023-04-10T18:36:19.033Z,9.27
2023-04-10T18:38:47.863Z,9.35
2023-04-10T18:41:16.554Z,9.08
2023-04-10T18:43:57.828Z,9.15
2023-04-10T18:46:33.653Z,8.94
2023-04-10T18:49:03.243Z,8.88
2023-04-10T18:51:34.974Z,9.22
2023-04-10T18:54:03.988Z,8.78
2023-04-10T18:56:35.771Z,9.18
2023-04-10T18:59:06.352Z,9.38
2023-04-10T19:01:35.122Z,9.30
2023-04-10T19:04:03.904Z,9.22
2023-04-10T19:06:32.979Z,9.38
2023-04-10T19:09:01.488Z,9.43
2023-04-10T19:11:30.087Z,9.64
2023-04-10T19:13:58.678Z,9.19
2023-04-10T19:16:28.579Z,9.54
2023-04-10T19:18:57.553Z,9.83
2023-04-10T19:21:27.848Z,10.16
2023-04-10T19:23:56.577Z,10.03
2023-04-10T19:26:25.127Z,9.79
2023-04-10T19:28:54.064Z,9.82
2023-04-10T19:31:23.951Z,10.05
2023-04-10T19:33:54.102Z,9.82
2023-04-10T19:36:22.620Z,10.00
2023-04-10T19:38:51.437Z,10.20
2023-04-10T19:41:19.916Z,10.06
2023-04-10T19:43:48.611Z,10.04
2023-04-10T19:46:18.443Z,9.98
2023-04-10T19:48:47.363Z,10.08
2023-04-10T19:51:17.225Z,10.06
2023-04-10T19:53:45.901Z,10.11
2023-04-10T19:56:14.344Z,10.12
2023-04-10T19:58:44.401Z,10.06
2023-04-10T20:01:14.100Z,9.94
2023-04-10T20:03:42.987Z,9.81
2023-04-10T20:06:11.724Z,9.89
2023-04-10T20:08:41.613Z,10.05
2023-04-10T20:11:10.068Z,9.89
2023-04-10T20:13:39.333Z,9.96
2023-04-10T20:16:09.040Z,10.02
2023-04-10T20:18:37.944Z,9.92
2023-04-10T20:21:08.006Z,9.86
2023-04-10T20:23:36.518Z,9.79
2023-04-10T20:26:06.823Z,9.78
2023-04-10T20:28:35.466Z,9.99
2023-04-10T20:31:03.961Z,9.87
2023-04-10T20:33:32.692Z,9.82
2023-04-10T20:36:01.210Z,9.86
2023-04-10T20:38:29.944Z,9.97
2023-04-10T20:40:58.415Z,9.75
2023-04-10T20:43:28.690Z,9.74
2023-04-10T20:45:57.379Z,9.66
2023-04-10T20:48:26.068Z,9.59
2023-04-10T20:50:55.546Z,9.58
2023-04-10T20:53:24.189Z,9.54
2023-04-10T20:55:54.192Z,9.56
2023-04-10T20:58:23.071Z,9.40
2023-04-10T21:00:54.573Z,9.34
2023-04-10T21:03:23.310Z,9.33
2023-04-10T21:05:53.652Z,9.22
2023-04-10T21:08:22.638Z,9.25
2023-04-10T21:10:51.433Z,9.23
2023-04-10T21:13:19.936Z,9.06
2023-04-10T21:15:50.419Z,8.94
2023-04-10T21:18:20.325Z,9.07
2023-04-10T21:20:48.763Z,9.12
2023-04-10T21:23:17.205Z,9.07
2023-04-10T21:25:52.879Z,8.99
2023-04-10T21:28:21.537Z,8.85
2023-04-10T21:30:50.077Z,8.93
2023-04-10T21:33:19.933Z,8.81
2023-04-10T21:35:49.014Z,8.93
2023-04-10T21:38:17.521Z,9.03
2023-04-10T21:40:52.448Z,8.88
2023-04-10T21:43:21.115Z,9.01
2023-04-10T21:45:50.018Z,8.83
2023-04-10T21:48:20.766Z,8.08
2023-04-10T21:50:51.239Z,8.05
2023-04-10T21:53:20.320Z,7.94
2023-04-10T21:55:50.358Z,8.31
2023-04-10T21:58:18.859Z,8.01
2023-04-10T22:00:47.552Z,8.83
2023-04-10T22:03:17.285Z,8.55
2023-04-10T22:05:48.914Z,8.66
2023-04-10T22:08:18.338Z,8.35
2023-04-10T22:10:48.123Z,8.40
2023-04-10T22:13:29.596Z,8.44
2023-04-10T22:15:59.738Z,8.39
2023-04-10T22:18:28.232Z,8.35
2023-04-10T22:20:58.081Z,8.18
2023-04-10T22:23:26.597Z,7.86
2023-04-10T22:25:55.092Z,8.44
2023-04-10T22:28:24.032Z,8.28
2023-04-10T22:30:52.580Z,8.18
2023-04-10T22:33:21.113Z,8.91
2023-04-10T22:35:49.968Z,9.12
2023-04-10T22:38:19.868Z,8.95
2023-04-10T22:40:48.526Z,9.33
2023-04-10T22:43:17.032Z,8.62
2023-04-10T22:45:45.708Z,9.47
2023-04-10T22:48:14.184Z,9.26
2023-04-10T22:50:42.850Z,9.31
2023-04-10T22:53:12.619Z,8.99
2023-04-10T22:55:42.719Z,9.02
2023-04-10T22:58:11.913Z,9.00
2023-04-10T23:00:40.458Z,9.30
2023-04-10T23:03:09.061Z,9.58
2023-04-10T23:05:37.595Z,9.50
2023-04-10T23:08:06.111Z,9.46
2023-04-10T23:10:34.575Z,9.33
2023-04-10T23:13:04.447Z,9.34
2023-04-10T23:15:33.125Z,9.48
2023-04-10T23:18:01.783Z,9.53
2023-04-10T23:20:30.336Z,9.54
2023-04-10T23:22:59.057Z,9.58
2023-04-10T23:25:27.527Z,9.20
2023-04-10T23:27:56.061Z,9.39
2023-04-10T23:30:26.348Z,9.53
2023-04-10T23:32:54.860Z,9.74
2023-04-10T23:35:23.616Z,9.79
2023-04-10T23:37:52.277Z,9.91
2023-04-10T23:40:22.291Z,9.95
2023-04-10T23:42:50.742Z,9.92
2023-04-10T23:45:19.402Z,9.99
2023-04-10T23:47:50.763Z,10.02
2023-04-10T23:50:19.828Z,9.96
2023-04-10T23:52:50.684Z,10.06
2023-04-10T23:55:20.060Z,9.99
2023-04-10T23:57:48.728Z,9.93
